首页
METAR-TAF:

METAR-TAF

机场 :

Mountain Home, 爱达荷州, 美国

纬度: 43-03N, 经度: 115-52W, 海拔: 913米

当前天气观测

该预报发布于40分钟前的16:55 UTC
风速6节,风向西
温度 27°C
湿度 17%
气压 1015 hPa
能見度: 11.3公里
天空无云

METAR: KMUO 241655Z AUTO 28006KT 7SM CLR 27/00 A2997 RMK AO2 VIS 2 3/4 RWY12 SLP110 T02730001 $

时间: 11:35 (17:35 UTC)

预报

该预报发布于7小时和35分钟前的10:00 UTC
预报有效从24日的 10点(UTC)到 25日的 16点(UTC)
风速12节,风向西转西北
能见度10公里或以上
天空无云
成为
从 24日的 16点(UTC)到 24日的 17点(UTC)
风速9节,风向西转西北
能见度10公里或以上
天空无云
成为
从 25日的 01点(UTC)到 25日的 02点(UTC)
风速6节,风向多变
能见度10公里或以上
天空无云

TAF: KMUO 241000Z 2410/2516 30012KT 9999 SKC QNH2986INS BECMG 2416/2417 30009KT 9999 SKC QNH2982INS BECMG 2501/2502 VRB06KT 9999 SKC QNH2978INS TX36/2500Z TN17/2412Z

超过4000个机场的气象观测和天气预报(METAR&TAF报告)。

可查询的气象台以黄色和红色小点在地图上表示。

将鼠标移到小点上方,可查看气象台名称。

然后点击查看天气观测和预报。

如需切换地图:点击带黑十字的绿色按钮放大地图;点击带横线的绿色按钮缩小地图;或者点击绿色箭头查看邻近地区的地图。


METAR-TAF: